sensor_id;sensor_type;location;lat;lon;timestamp;temperature;humidity
5429;DHT22;2737;52.386;9.980;2022-08-25T00:01:08;20.50;99.90
5429;DHT22;2737;52.386;9.980;2022-08-25T00:03:36;20.50;99.90
5429;DHT22;2737;52.386;9.980;2022-08-25T00:06:04;20.50;99.90
5429;DHT22;2737;52.386;9.980;2022-08-25T00:08:31;20.50;99.90
5429;DHT22;2737;52.386;9.980;2022-08-25T00:10:59;20.40;99.90
5429;DHT22;2737;52.386;9.980;2022-08-25T00:13:28;20.40;99.90
5429;DHT22;2737;52.386;9.980;2022-08-25T00:15:56;20.30;99.90
5429;DHT22;2737;52.386;9.980;2022-08-25T00:18:23;20.30;99.90
5429;DHT22;2737;52.386;9.980;2022-08-25T00:20:50;20.30;99.90
5429;DHT22;2737;52.386;9.980;2022-08-25T00:23:18;20.20;99.90
5429;DHT22;2737;52.386;9.980;2022-08-25T00:25:45;20.20;99.90
5429;DHT22;2737;52.386;9.980;2022-08-25T00:28:12;20.20;99.90
5429;DHT22;2737;52.386;9.980;2022-08-25T00:30:43;20.20;99.90
5429;DHT22;2737;52.386;9.980;2022-08-25T00:33:10;20.10;99.90
5429;DHT22;2737;52.386;9.980;2022-08-25T00:35:39;20.10;99.90
5429;DHT22;2737;52.386;9.980;2022-08-25T00:38:07;20.10;99.90
5429;DHT22;2737;52.386;9.980;2022-08-25T00:40:35;20.00;99.90
5429;DHT22;2737;52.386;9.980;2022-08-25T00:43:04;20.00;99.90
5429;DHT22;2737;52.386;9.980;2022-08-25T00:45:31;20.00;99.90
5429;DHT22;2737;52.386;9.980;2022-08-25T00:48:00;20.00;99.90
5429;DHT22;2737;52.386;9.980;2022-08-25T00:50:28;20.00;99.90
5429;DHT22;2737;52.386;9.980;2022-08-25T00:53:00;19.90;99.90
5429;DHT22;2737;52.386;9.980;2022-08-25T00:55:32;19.80;99.90
5429;DHT22;2737;52.386;9.980;2022-08-25T00:58:04;19.70;99.90
5429;DHT22;2737;52.386;9.980;2022-08-25T01:00:35;19.60;99.90
5429;DHT22;2737;52.386;9.980;2022-08-25T01:03:04;19.60;99.90
5429;DHT22;2737;52.386;9.980;2022-08-25T01:05:32;19.60;99.90
5429;DHT22;2737;52.386;9.980;2022-08-25T01:08:00;19.50;99.90
5429;DHT22;2737;52.386;9.980;2022-08-25T01:10:28;19.50;99.90
5429;DHT22;2737;52.386;9.980;2022-08-25T01:13:00;19.50;99.90
5429;DHT22;2737;52.386;9.980;2022-08-25T01:15:29;19.50;99.90
5429;DHT22;2737;52.386;9.980;2022-08-25T01:17:56;19.50;99.90
5429;DHT22;2737;52.386;9.980;2022-08-25T01:20:29;19.40;99.90
5429;DHT22;2737;52.386;9.980;2022-08-25T01:22:59;19.30;99.90
5429;DHT22;2737;52.386;9.980;2022-08-25T01:25:34;19.30;99.90
5429;DHT22;2737;52.386;9.980;2022-08-25T01:28:05;19.20;99.90
5429;DHT22;2737;52.386;9.980;2022-08-25T01:30:32;19.20;99.90
5429;DHT22;2737;52.386;9.980;2022-08-25T01:33:02;19.10;99.90
5429;DHT22;2737;52.386;9.980;2022-08-25T01:35:29;19.10;99.90
5429;DHT22;2737;52.386;9.980;2022-08-25T01:38:07;19.10;99.90
5429;DHT22;2737;52.386;9.980;2022-08-25T01:40:35;19.00;99.90
5429;DHT22;2737;52.386;9.980;2022-08-25T01:43:11;19.00;99.90
5429;DHT22;2737;52.386;9.980;2022-08-25T01:45:45;19.00;99.90
5429;DHT22;2737;52.386;9.980;2022-08-25T01:48:13;18.90;99.90
5429;DHT22;2737;52.386;9.980;2022-08-25T01:50:41;18.90;99.90
5429;DHT22;2737;52.386;9.980;2022-08-25T01:53:12;18.90;99.90
5429;DHT22;2737;52.386;9.980;2022-08-25T01:55:43;18.90;99.90
5429;DHT22;2737;52.386;9.980;2022-08-25T01:58:28;18.90;99.90
5429;DHT22;2737;52.386;9.980;2022-08-25T02:00:57;18.90;99.90
5429;DHT22;2737;52.386;9.980;2022-08-25T02:03:25;18.80;99.90
5429;DHT22;2737;52.386;9.980;2022-08-25T02:05:53;18.90;99.90
5429;DHT22;2737;52.386;9.980;2022-08-25T02:08:22;18.80;99.90
5429;DHT22;2737;52.386;9.980;2022-08-25T02:10:49;18.80;99.90
5429;DHT22;2737;52.386;9.980;2022-08-25T02:13:17;18.80;99.90
5429;DHT22;2737;52.386;9.980;2022-08-25T02:15:56;18.80;99.90
5429;DHT22;2737;52.386;9.980;2022-08-25T02:18:25;18.80;99.90
5429;DHT22;2737;52.386;9.980;2022-08-25T02:20:52;18.80;99.90
5429;DHT22;2737;52.386;9.980;2022-08-25T02:23:21;18.70;99.90
5429;DHT22;2737;52.386;9.980;2022-08-25T02:25:48;18.70;99.90
5429;DHT22;2737;52.386;9.980;2022-08-25T02:28:15;18.70;99.90
5429;DHT22;2737;52.386;9.980;2022-08-25T02:30:42;18.70;99.90
5429;DHT22;2737;52.386;9.980;2022-08-25T02:33:10;18.70;99.90
5429;DHT22;2737;52.386;9.980;2022-08-25T02:35:37;18.70;99.90
5429;DHT22;2737;52.386;9.980;2022-08-25T02:38:04;18.70;99.90
5429;DHT22;2737;52.386;9.980;2022-08-25T02:40:33;18.60;99.90
5429;DHT22;2737;52.386;9.980;2022-08-25T02:43:00;18.60;99.90
5429;DHT22;2737;52.386;9.980;2022-08-25T02:45:28;18.60;99.90
5429;DHT22;2737;52.386;9.980;2022-08-25T02:47:55;18.60;99.90
5429;DHT22;2737;52.386;9.980;2022-08-25T02:50:22;18.60;99.90
5429;DHT22;2737;52.386;9.980;2022-08-25T02:52:51;18.50;99.90
5429;DHT22;2737;52.386;9.980;2022-08-25T02:55:18;18.60;99.90
5429;DHT22;2737;52.386;9.980;2022-08-25T02:57:47;18.60;99.90
5429;DHT22;2737;52.386;9.980;2022-08-25T03:00:15;18.60;99.90
5429;DHT22;2737;52.386;9.980;2022-08-25T03:02:43;18.60;99.90
5429;DHT22;2737;52.386;9.980;2022-08-25T03:05:12;18.60;99.90
5429;DHT22;2737;52.386;9.980;2022-08-25T03:07:39;18.60;99.90
5429;DHT22;2737;52.386;9.980;2022-08-25T03:10:09;18.50;99.90
5429;DHT22;2737;52.386;9.980;2022-08-25T03:12:36;18.50;99.90
5429;DHT22;2737;52.386;9.980;2022-08-25T03:15:08;18.50;99.90
5429;DHT22;2737;52.386;9.980;2022-08-25T03:17:36;18.40;99.90
5429;DHT22;2737;52.386;9.980;2022-08-25T03:20:04;18.40;99.90
5429;DHT22;2737;52.386;9.980;2022-08-25T03:22:31;18.40;99.90
5429;DHT22;2737;52.386;9.980;2022-08-25T03:24:59;18.40;99.90
5429;DHT22;2737;52.386;9.980;2022-08-25T03:27:46;18.30;99.90
5429;DHT22;2737;52.386;9.980;2022-08-25T03:30:15;18.30;99.90
5429;DHT22;2737;52.386;9.980;2022-08-25T03:32:42;18.30;99.90
5429;DHT22;2737;52.386;9.980;2022-08-25T03:35:10;18.30;99.90
5429;DHT22;2737;52.386;9.980;2022-08-25T03:37:37;18.30;99.90
5429;DHT22;2737;52.386;9.980;2022-08-25T03:40:07;18.20;99.90
5429;DHT22;2737;52.386;9.980;2022-08-25T03:42:39;18.20;99.90
5429;DHT22;2737;52.386;9.980;2022-08-25T03:45:08;18.20;99.90
5429;DHT22;2737;52.386;9.980;2022-08-25T03:47:38;18.10;99.90
5429;DHT22;2737;52.386;9.980;2022-08-25T03:50:07;18.10;99.90
5429;DHT22;2737;52.386;9.980;2022-08-25T03:52:36;18.10;99.90
5429;DHT22;2737;52.386;9.980;2022-08-25T03:55:05;18.20;99.90
5429;DHT22;2737;52.386;9.980;2022-08-25T03:57:32;18.20;99.90
5429;DHT22;2737;52.386;9.980;2022-08-25T03:59:59;18.20;99.90
5429;DHT22;2737;52.386;9.980;2022-08-25T04:02:27;18.10;99.90
5429;DHT22;2737;52.386;9.980;2022-08-25T04:04:56;18.10;99.90
5429;DHT22;2737;52.386;9.980;2022-08-25T04:07:23;18.10;99.90
5429;DHT22;2737;52.386;9.980;2022-08-25T04:09:50;18.10;99.90
5429;DHT22;2737;52.386;9.980;2022-08-25T04:12:19;18.00;99.90
5429;DHT22;2737;52.386;9.980;2022-08-25T04:14:46;18.00;99.90
5429;DHT22;2737;52.386;9.980;2022-08-25T04:17:13;18.00;99.90
5429;DHT22;2737;52.386;9.980;2022-08-25T04:19:43;17.90;99.90
5429;DHT22;2737;52.386;9.980;2022-08-25T04:22:11;17.90;99.90
5429;DHT22;2737;52.386;9.980;2022-08-25T04:24:38;17.90;99.90
5429;DHT22;2737;52.386;9.980;2022-08-25T04:27:05;17.90;99.90
5429;DHT22;2737;52.386;9.980;2022-08-25T04:29:33;17.90;99.90
5429;DHT22;2737;52.386;9.980;2022-08-25T04:32:00;17.90;99.90
5429;DHT22;2737;52.386;9.980;2022-08-25T04:34:27;17.90;99.90
5429;DHT22;2737;52.386;9.980;2022-08-25T04:36:54;17.90;99.90
5429;DHT22;2737;52.386;9.980;2022-08-25T04:39:23;17.90;99.90
5429;DHT22;2737;52.386;9.980;2022-08-25T04:41:50;17.80;99.90
5429;DHT22;2737;52.386;9.980;2022-08-25T04:44:17;17.90;99.90
5429;DHT22;2737;52.386;9.980;2022-08-25T04:46:44;17.80;99.90
5429;DHT22;2737;52.386;9.980;2022-08-25T04:49:11;17.80;99.90
5429;DHT22;2737;52.386;9.980;2022-08-25T04:51:40;17.80;99.90
5429;DHT22;2737;52.386;9.980;2022-08-25T04:54:09;17.80;99.90
5429;DHT22;2737;52.386;9.980;2022-08-25T04:56:40;17.80;99.90
5429;DHT22;2737;52.386;9.980;2022-08-25T04:59:08;17.90;99.90
5429;DHT22;2737;52.386;9.980;2022-08-25T05:01:36;17.90;99.90
5429;DHT22;2737;52.386;9.980;2022-08-25T05:04:06;17.90;99.90
5429;DHT22;2737;52.386;9.980;2022-08-25T05:06:33;18.00;99.90
5429;DHT22;2737;52.386;9.980;2022-08-25T05:09:00;18.00;99.90
5429;DHT22;2737;52.386;9.980;2022-08-25T05:11:28;18.00;99.90
5429;DHT22;2737;52.386;9.980;2022-08-25T05:13:58;18.10;99.90
5429;DHT22;2737;52.386;9.980;2022-08-25T05:16:26;18.10;99.90
5429;DHT22;2737;52.386;9.980;2022-08-25T05:18:54;18.20;99.90
5429;DHT22;2737;52.386;9.980;2022-08-25T05:21:24;18.20;99.90
5429;DHT22;2737;52.386;9.980;2022-08-25T05:23:54;18.30;99.90
5429;DHT22;2737;52.386;9.980;2022-08-25T05:26:23;18.40;99.90
5429;DHT22;2737;52.386;9.980;2022-08-25T05:28:52;18.50;99.90
5429;DHT22;2737;52.386;9.980;2022-08-25T05:31:22;18.60;99.90
5429;DHT22;2737;52.386;9.980;2022-08-25T05:33:50;18.70;99.90
5429;DHT22;2737;52.386;9.980;2022-08-25T05:36:18;18.80;99.90
5429;DHT22;2737;52.386;9.980;2022-08-25T05:38:45;18.90;99.90
5429;DHT22;2737;52.386;9.980;2022-08-25T05:41:15;19.00;99.90
5429;DHT22;2737;52.386;9.980;2022-08-25T05:43:44;19.00;99.90
5429;DHT22;2737;52.386;9.980;2022-08-25T05:46:12;19.20;99.90
5429;DHT22;2737;52.386;9.980;2022-08-25T05:48:41;19.30;99.90
5429;DHT22;2737;52.386;9.980;2022-08-25T05:51:09;19.40;99.90
5429;DHT22;2737;52.386;9.980;2022-08-25T05:53:37;19.50;99.90
5429;DHT22;2737;52.386;9.980;2022-08-25T05:56:05;19.60;99.90
5429;DHT22;2737;52.386;9.980;2022-08-25T05:58:33;19.70;99.90
5429;DHT22;2737;52.386;9.980;2022-08-25T06:01:00;19.90;99.90
5429;DHT22;2737;52.386;9.980;2022-08-25T06:03:49;20.00;99.90
5429;DHT22;2737;52.386;9.980;2022-08-25T06:06:17;20.10;99.90
5429;DHT22;2737;52.386;9.980;2022-08-25T06:08:45;20.30;99.90
5429;DHT22;2737;52.386;9.980;2022-08-25T06:11:12;20.40;99.90
5429;DHT22;2737;52.386;9.980;2022-08-25T06:13:40;20.50;99.90
5429;DHT22;2737;52.386;9.980;2022-08-25T06:16:08;20.60;99.90
5429;DHT22;2737;52.386;9.980;2022-08-25T06:18:35;20.70;99.90
5429;DHT22;2737;52.386;9.980;2022-08-25T06:21:09;20.80;99.90
5429;DHT22;2737;52.386;9.980;2022-08-25T06:23:37;20.90;99.90
5429;DHT22;2737;52.386;9.980;2022-08-25T06:26:05;21.00;99.90
5429;DHT22;2737;52.386;9.980;2022-08-25T06:28:32;21.00;99.90
5429;DHT22;2737;52.386;9.980;2022-08-25T06:31:00;21.10;99.90
5429;DHT22;2737;52.386;9.980;2022-08-25T06:33:28;21.30;99.90
5429;DHT22;2737;52.386;9.980;2022-08-25T06:35:56;21.40;99.90
5429;DHT22;2737;52.386;9.980;2022-08-25T06:38:25;21.50;99.90
5429;DHT22;2737;52.386;9.980;2022-08-25T06:40:53;21.60;99.90
5429;DHT22;2737;52.386;9.980;2022-08-25T06:43:20;21.80;99.90
5429;DHT22;2737;52.386;9.980;2022-08-25T06:45:48;21.90;99.90
5429;DHT22;2737;52.386;9.980;2022-08-25T06:48:15;22.00;99.90
5429;DHT22;2737;52.386;9.980;2022-08-25T06:50:43;22.20;99.90
5429;DHT22;2737;52.386;9.980;2022-08-25T06:53:12;22.30;99.90
5429;DHT22;2737;52.386;9.980;2022-08-25T06:55:40;22.30;99.90
5429;DHT22;2737;52.386;9.980;2022-08-25T06:58:08;22.40;99.90
5429;DHT22;2737;52.386;9.980;2022-08-25T07:00:35;22.50;99.90
5429;DHT22;2737;52.386;9.980;2022-08-25T07:03:03;22.60;99.90
5429;DHT22;2737;52.386;9.980;2022-08-25T07:05:30;22.60;99.90
5429;DHT22;2737;52.386;9.980;2022-08-25T07:07:57;22.60;99.90
5429;DHT22;2737;52.386;9.980;2022-08-25T07:10:24;22.60;99.90
5429;DHT22;2737;52.386;9.980;2022-08-25T07:12:52;22.80;99.90
5429;DHT22;2737;52.386;9.980;2022-08-25T07:15:19;22.90;99.90
5429;DHT22;2737;52.386;9.980;2022-08-25T07:17:47;23.00;99.90
5429;DHT22;2737;52.386;9.980;2022-08-25T07:20:15;23.10;99.90
5429;DHT22;2737;52.386;9.980;2022-08-25T07:22:42;23.30;99.90
5429;DHT22;2737;52.386;9.980;2022-08-25T07:25:09;23.40;99.90
5429;DHT22;2737;52.386;9.980;2022-08-25T07:27:37;23.50;99.90
5429;DHT22;2737;52.386;9.980;2022-08-25T07:30:08;23.60;99.90
5429;DHT22;2737;52.386;9.980;2022-08-25T07:32:35;23.70;99.90
5429;DHT22;2737;52.386;9.980;2022-08-25T07:35:02;23.80;99.90
5429;DHT22;2737;52.386;9.980;2022-08-25T07:37:40;24.00;99.90
5429;DHT22;2737;52.386;9.980;2022-08-25T07:40:10;24.10;99.90
5429;DHT22;2737;52.386;9.980;2022-08-25T07:42:37;24.20;99.90
5429;DHT22;2737;52.386;9.980;2022-08-25T07:45:07;24.20;99.90
5429;DHT22;2737;52.386;9.980;2022-08-25T07:47:35;24.40;99.90
5429;DHT22;2737;52.386;9.980;2022-08-25T07:50:03;24.50;99.90
5429;DHT22;2737;52.386;9.980;2022-08-25T07:52:30;24.60;99.90
5429;DHT22;2737;52.386;9.980;2022-08-25T07:54:57;24.60;99.90
5429;DHT22;2737;52.386;9.980;2022-08-25T07:57:24;24.60;99.90
5429;DHT22;2737;52.386;9.980;2022-08-25T07:59:52;24.70;99.90
5429;DHT22;2737;52.386;9.980;2022-08-25T08:02:21;24.70;99.90
5429;DHT22;2737;52.386;9.980;2022-08-25T08:04:49;24.70;99.90
5429;DHT22;2737;52.386;9.980;2022-08-25T08:07:17;24.70;99.90
5429;DHT22;2737;52.386;9.980;2022-08-25T08:09:46;24.70;99.90
5429;DHT22;2737;52.386;9.980;2022-08-25T08:12:13;24.80;99.90
5429;DHT22;2737;52.386;9.980;2022-08-25T08:14:40;24.70;99.90
5429;DHT22;2737;52.386;9.980;2022-08-25T08:17:09;24.80;99.90
5429;DHT22;2737;52.386;9.980;2022-08-25T08:19:37;24.80;99.90
5429;DHT22;2737;52.386;9.980;2022-08-25T08:22:05;24.90;99.90
5429;DHT22;2737;52.386;9.980;2022-08-25T08:24:33;24.90;99.90
5429;DHT22;2737;52.386;9.980;2022-08-25T08:27:04;25.00;99.90
5429;DHT22;2737;52.386;9.980;2022-08-25T08:29:31;25.00;99.90
5429;DHT22;2737;52.386;9.980;2022-08-25T08:32:00;25.20;99.90
5429;DHT22;2737;52.386;9.980;2022-08-25T08:34:27;25.30;99.90
5429;DHT22;2737;52.386;9.980;2022-08-25T08:36:56;25.30;99.90
5429;DHT22;2737;52.386;9.980;2022-08-25T08:39:25;25.30;99.90
5429;DHT22;2737;52.386;9.980;2022-08-25T08:42:02;25.30;99.90
5429;DHT22;2737;52.386;9.980;2022-08-25T08:45:00;25.30;99.90
5429;DHT22;2737;52.386;9.980;2022-08-25T08:47:41;25.40;99.90
5429;DHT22;2737;52.386;9.980;2022-08-25T08:50:18;25.40;99.90
5429;DHT22;2737;52.386;9.980;2022-08-25T08:52:51;25.30;99.90
5429;DHT22;2737;52.386;9.980;2022-08-25T08:55:24;25.40;99.90
5429;DHT22;2737;52.386;9.980;2022-08-25T08:57:52;25.40;99.90
5429;DHT22;2737;52.386;9.980;2022-08-25T09:00:21;25.50;99.90
5429;DHT22;2737;52.386;9.980;2022-08-25T09:02:52;25.60;99.90
5429;DHT22;2737;52.386;9.980;2022-08-25T09:05:25;25.60;99.90
5429;DHT22;2737;52.386;9.980;2022-08-25T09:08:05;25.60;99.90
5429;DHT22;2737;52.386;9.980;2022-08-25T09:10:40;25.60;99.90
5429;DHT22;2737;52.386;9.980;2022-08-25T09:13:17;25.70;99.90
5429;DHT22;2737;52.386;9.980;2022-08-25T09:15:54;25.70;99.90
5429;DHT22;2737;52.386;9.980;2022-08-25T09:18:50;25.80;99.90
5429;DHT22;2737;52.386;9.980;2022-08-25T09:21:29;25.80;99.90
5429;DHT22;2737;52.386;9.980;2022-08-25T09:24:17;25.90;99.90
5429;DHT22;2737;52.386;9.980;2022-08-25T09:26:55;26.00;99.90
5429;DHT22;2737;52.386;9.980;2022-08-25T09:29:28;26.30;99.90
5429;DHT22;2737;52.386;9.980;2022-08-25T09:31:57;26.40;99.90
5429;DHT22;2737;52.386;9.980;2022-08-25T09:34:29;26.30;99.90
5429;DHT22;2737;52.386;9.980;2022-08-25T09:36:58;26.30;99.90
5429;DHT22;2737;52.386;9.980;2022-08-25T09:39:26;26.30;99.90
5429;DHT22;2737;52.386;9.980;2022-08-25T09:41:55;26.30;99.90
5429;DHT22;2737;52.386;9.980;2022-08-25T09:44:24;26.20;99.90
5429;DHT22;2737;52.386;9.980;2022-08-25T09:47:01;26.10;99.90
5429;DHT22;2737;52.386;9.980;2022-08-25T09:49:35;26.00;99.90
5429;DHT22;2737;52.386;9.980;2022-08-25T09:52:34;25.90;99.90
5429;DHT22;2737;52.386;9.980;2022-08-25T09:57:56;26.00;99.90
5429;DHT22;2737;52.386;9.980;2022-08-25T10:00:26;25.90;99.90
5429;DHT22;2737;52.386;9.980;2022-08-25T10:03:04;26.00;99.90
5429;DHT22;2737;52.386;9.980;2022-08-25T10:05:32;26.10;99.90
5429;DHT22;2737;52.386;9.980;2022-08-25T10:08:03;26.10;99.90
5429;DHT22;2737;52.386;9.980;2022-08-25T10:10:33;26.30;99.90
5429;DHT22;2737;52.386;9.980;2022-08-25T10:13:12;26.20;99.90
5429;DHT22;2737;52.386;9.980;2022-08-25T10:15:40;26.20;99.90
5429;DHT22;2737;52.386;9.980;2022-08-25T10:18:22;26.10;99.90
5429;DHT22;2737;52.386;9.980;2022-08-25T10:21:01;26.30;99.90
5429;DHT22;2737;52.386;9.980;2022-08-25T10:23:29;26.50;99.90
5429;DHT22;2737;52.386;9.980;2022-08-25T10:26:01;26.70;99.90
5429;DHT22;2737;52.386;9.980;2022-08-25T10:28:38;26.80;99.90
5429;DHT22;2737;52.386;9.980;2022-08-25T10:31:13;26.70;99.90
5429;DHT22;2737;52.386;9.980;2022-08-25T10:33:49;26.80;99.90
5429;DHT22;2737;52.386;9.980;2022-08-25T10:36:21;26.90;99.90
5429;DHT22;2737;52.386;9.980;2022-08-25T10:38:54;26.90;99.90
5429;DHT22;2737;52.386;9.980;2022-08-25T10:41:43;26.80;99.90
5429;DHT22;2737;52.386;9.980;2022-08-25T10:44:22;26.80;99.90
5429;DHT22;2737;52.386;9.980;2022-08-25T10:47:33;26.70;99.90
5429;DHT22;2737;52.386;9.980;2022-08-25T10:50:12;26.60;99.90
5429;DHT22;2737;52.386;9.980;2022-08-25T10:52:56;26.70;99.90
5429;DHT22;2737;52.386;9.980;2022-08-25T10:55:27;26.70;99.90
5429;DHT22;2737;52.386;9.980;2022-08-25T10:58:05;26.80;99.90
5429;DHT22;2737;52.386;9.980;2022-08-25T11:00:37;26.80;99.90
5429;DHT22;2737;52.386;9.980;2022-08-25T11:03:23;26.70;99.90
5429;DHT22;2737;52.386;9.980;2022-08-25T11:05:58;26.70;99.90
5429;DHT22;2737;52.386;9.980;2022-08-25T11:08:32;26.80;99.90
5429;DHT22;2737;52.386;9.980;2022-08-25T11:11:04;26.80;99.90
5429;DHT22;2737;52.386;9.980;2022-08-25T11:13:40;26.80;99.90
5429;DHT22;2737;52.386;9.980;2022-08-25T11:16:13;26.90;99.90
5429;DHT22;2737;52.386;9.980;2022-08-25T11:18:47;26.90;99.90
5429;DHT22;2737;52.386;9.980;2022-08-25T11:21:18;27.00;99.90
5429;DHT22;2737;52.386;9.980;2022-08-25T11:23:52;27.00;99.90
5429;DHT22;2737;52.386;9.980;2022-08-25T11:26:25;26.90;99.90
5429;DHT22;2737;52.386;9.980;2022-08-25T11:29:02;27.00;99.90
5429;DHT22;2737;52.386;9.980;2022-08-25T11:31:37;26.90;99.90
5429;DHT22;2737;52.386;9.980;2022-08-25T11:34:08;26.90;99.90
5429;DHT22;2737;52.386;9.980;2022-08-25T11:36:37;26.80;99.90
5429;DHT22;2737;52.386;9.980;2022-08-25T11:39:20;26.80;99.90
5429;DHT22;2737;52.386;9.980;2022-08-25T11:42:03;26.90;99.90
5429;DHT22;2737;52.386;9.980;2022-08-25T11:44:47;27.00;99.90
5429;DHT22;2737;52.386;9.980;2022-08-25T11:47:45;27.10;99.90
5429;DHT22;2737;52.386;9.980;2022-08-25T11:50:29;27.20;99.90
5429;DHT22;2737;52.386;9.980;2022-08-25T11:53:15;27.30;99.90
5429;DHT22;2737;52.386;9.980;2022-08-25T11:55:47;27.30;99.90
5429;DHT22;2737;52.386;9.980;2022-08-25T11:58:44;27.40;99.90
5429;DHT22;2737;52.386;9.980;2022-08-25T12:04:29;27.80;99.90
5429;DHT22;2737;52.386;9.980;2022-08-25T12:07:22;27.90;99.90
5429;DHT22;2737;52.386;9.980;2022-08-25T12:13:37;27.50;99.90
5429;DHT22;2737;52.386;9.980;2022-08-25T12:16:04;27.60;99.90
5429;DHT22;2737;52.386;9.980;2022-08-25T12:18:41;27.80;99.90
5429;DHT22;2737;52.386;9.980;2022-08-25T12:21:13;28.00;99.90
5429;DHT22;2737;52.386;9.980;2022-08-25T12:23:42;28.10;99.90
5429;DHT22;2737;52.386;9.980;2022-08-25T12:26:17;28.00;99.90
5429;DHT22;2737;52.386;9.980;2022-08-25T12:28:52;28.00;99.90
5429;DHT22;2737;52.386;9.980;2022-08-25T12:31:43;28.00;99.90
5429;DHT22;2737;52.386;9.980;2022-08-25T12:34:30;27.80;99.90
5429;DHT22;2737;52.386;9.980;2022-08-25T12:37:10;27.70;99.90
5429;DHT22;2737;52.386;9.980;2022-08-25T12:39:44;27.70;99.90
5429;DHT22;2737;52.386;9.980;2022-08-25T12:42:22;27.70;99.90
5429;DHT22;2737;52.386;9.980;2022-08-25T12:45:13;27.80;99.90
5429;DHT22;2737;52.386;9.980;2022-08-25T12:51:05;28.00;99.90
5429;DHT22;2737;52.386;9.980;2022-08-25T12:53:38;28.00;99.90
5429;DHT22;2737;52.386;9.980;2022-08-25T12:56:09;27.90;99.90
5429;DHT22;2737;52.386;9.980;2022-08-25T12:58:48;27.90;99.90
5429;DHT22;2737;52.386;9.980;2022-08-25T13:01:24;27.90;99.90
5429;DHT22;2737;52.386;9.980;2022-08-25T13:04:25;27.90;99.90
5429;DHT22;2737;52.386;9.980;2022-08-25T13:07:15;28.00;99.90
5429;DHT22;2737;52.386;9.980;2022-08-25T13:13:03;28.10;99.90
5429;DHT22;2737;52.386;9.980;2022-08-25T13:15:37;28.10;99.90
5429;DHT22;2737;52.386;9.980;2022-08-25T13:18:17;28.10;99.90
5429;DHT22;2737;52.386;9.980;2022-08-25T13:20:46;28.30;99.90
5429;DHT22;2737;52.386;9.980;2022-08-25T13:23:19;28.40;99.90
5429;DHT22;2737;52.386;9.980;2022-08-25T13:25:50;28.50;99.90
5429;DHT22;2737;52.386;9.980;2022-08-25T13:28:25;28.40;99.90
5429;DHT22;2737;52.386;9.980;2022-08-25T13:30:59;28.40;99.90
5429;DHT22;2737;52.386;9.980;2022-08-25T13:33:27;28.30;99.90
5429;DHT22;2737;52.386;9.980;2022-08-25T13:35:55;28.30;99.90
5429;DHT22;2737;52.386;9.980;2022-08-25T13:38:36;28.20;99.90
5429;DHT22;2737;52.386;9.980;2022-08-25T13:41:04;28.30;99.90
5429;DHT22;2737;52.386;9.980;2022-08-25T13:43:33;28.40;99.90
5429;DHT22;2737;52.386;9.980;2022-08-25T13:46:00;28.50;99.90
5429;DHT22;2737;52.386;9.980;2022-08-25T13:48:32;28.50;99.90
5429;DHT22;2737;52.386;9.980;2022-08-25T13:51:20;28.60;99.90
5429;DHT22;2737;52.386;9.980;2022-08-25T13:53:54;28.50;99.90
5429;DHT22;2737;52.386;9.980;2022-08-25T13:56:27;28.40;99.90
5429;DHT22;2737;52.386;9.980;2022-08-25T13:58:57;28.50;99.90
5429;DHT22;2737;52.386;9.980;2022-08-25T14:01:27;28.50;99.90
5429;DHT22;2737;52.386;9.980;2022-08-25T14:04:18;28.50;99.90
5429;DHT22;2737;52.386;9.980;2022-08-25T14:06:44;28.40;99.90
5429;DHT22;2737;52.386;9.980;2022-08-25T14:09:14;28.50;99.90
5429;DHT22;2737;52.386;9.980;2022-08-25T14:11:44;28.60;99.90
5429;DHT22;2737;52.386;9.980;2022-08-25T14:14:30;28.60;99.90
5429;DHT22;2737;52.386;9.980;2022-08-25T14:17:03;28.60;99.90
5429;DHT22;2737;52.386;9.980;2022-08-25T14:19:31;28.60;99.90
5429;DHT22;2737;52.386;9.980;2022-08-25T14:21:59;28.60;99.90
5429;DHT22;2737;52.386;9.980;2022-08-25T14:24:31;28.70;99.90
5429;DHT22;2737;52.386;9.980;2022-08-25T14:26:59;28.70;99.90
5429;DHT22;2737;52.386;9.980;2022-08-25T14:29:28;28.60;99.90
5429;DHT22;2737;52.386;9.980;2022-08-25T14:31:56;28.60;99.90
5429;DHT22;2737;52.386;9.980;2022-08-25T14:34:26;28.60;99.90
5429;DHT22;2737;52.386;9.980;2022-08-25T14:36:55;28.50;99.90
5429;DHT22;2737;52.386;9.980;2022-08-25T14:39:24;28.50;99.90
5429;DHT22;2737;52.386;9.980;2022-08-25T14:41:51;28.50;99.90
5429;DHT22;2737;52.386;9.980;2022-08-25T14:44:19;28.50;99.90
5429;DHT22;2737;52.386;9.980;2022-08-25T14:46:50;28.50;99.90
5429;DHT22;2737;52.386;9.980;2022-08-25T14:49:22;28.50;99.90
5429;DHT22;2737;52.386;9.980;2022-08-25T14:51:52;28.50;99.90
5429;DHT22;2737;52.386;9.980;2022-08-25T14:54:23;28.50;99.90
5429;DHT22;2737;52.386;9.980;2022-08-25T14:56:51;28.60;99.90
5429;DHT22;2737;52.386;9.980;2022-08-25T14:59:18;28.60;99.90
5429;DHT22;2737;52.386;9.980;2022-08-25T15:01:46;28.50;99.90
5429;DHT22;2737;52.386;9.980;2022-08-25T15:04:18;28.50;99.90
5429;DHT22;2737;52.386;9.980;2022-08-25T15:06:45;28.50;99.90
5429;DHT22;2737;52.386;9.980;2022-08-25T15:09:15;28.50;99.90
5429;DHT22;2737;52.386;9.980;2022-08-25T15:11:45;28.50;99.90
5429;DHT22;2737;52.386;9.980;2022-08-25T15:14:14;28.60;99.90
5429;DHT22;2737;52.386;9.980;2022-08-25T15:16:43;28.50;99.90
5429;DHT22;2737;52.386;9.980;2022-08-25T15:19:13;28.50;99.90
5429;DHT22;2737;52.386;9.980;2022-08-25T15:21:42;28.50;99.90
5429;DHT22;2737;52.386;9.980;2022-08-25T15:24:11;28.50;99.90
5429;DHT22;2737;52.386;9.980;2022-08-25T15:26:41;28.40;99.90
5429;DHT22;2737;52.386;9.980;2022-08-25T15:29:09;28.40;99.90
5429;DHT22;2737;52.386;9.980;2022-08-25T15:31:36;28.40;99.90
5429;DHT22;2737;52.386;9.980;2022-08-25T15:34:04;28.30;99.90
5429;DHT22;2737;52.386;9.980;2022-08-25T15:36:32;28.30;99.90
5429;DHT22;2737;52.386;9.980;2022-08-25T15:39:01;28.30;99.90
5429;DHT22;2737;52.386;9.980;2022-08-25T15:41:28;28.40;99.90
5429;DHT22;2737;52.386;9.980;2022-08-25T15:43:55;28.40;99.90
5429;DHT22;2737;52.386;9.980;2022-08-25T15:46:25;28.40;99.90
5429;DHT22;2737;52.386;9.980;2022-08-25T15:48:54;28.40;99.90
5429;DHT22;2737;52.386;9.980;2022-08-25T15:51:22;28.40;99.90
5429;DHT22;2737;52.386;9.980;2022-08-25T15:53:49;28.40;99.90
5429;DHT22;2737;52.386;9.980;2022-08-25T15:56:17;28.40;99.90
5429;DHT22;2737;52.386;9.980;2022-08-25T15:58:46;28.40;99.90
5429;DHT22;2737;52.386;9.980;2022-08-25T16:01:14;28.30;99.90
5429;DHT22;2737;52.386;9.980;2022-08-25T16:03:42;28.30;99.90
5429;DHT22;2737;52.386;9.980;2022-08-25T16:06:09;28.30;99.90
5429;DHT22;2737;52.386;9.980;2022-08-25T16:08:37;28.30;99.90
5429;DHT22;2737;52.386;9.980;2022-08-25T16:11:05;28.30;99.90
5429;DHT22;2737;52.386;9.980;2022-08-25T16:13:42;28.20;99.90
5429;DHT22;2737;52.386;9.980;2022-08-25T16:16:09;28.20;99.90
5429;DHT22;2737;52.386;9.980;2022-08-25T16:18:36;28.20;99.90
5429;DHT22;2737;52.386;9.980;2022-08-25T16:21:08;28.10;99.90
5429;DHT22;2737;52.386;9.980;2022-08-25T16:23:36;28.10;99.90
5429;DHT22;2737;52.386;9.980;2022-08-25T16:26:04;28.10;99.90
5429;DHT22;2737;52.386;9.980;2022-08-25T16:28:33;28.10;99.90
5429;DHT22;2737;52.386;9.980;2022-08-25T16:31:02;28.00;99.90
5429;DHT22;2737;52.386;9.980;2022-08-25T16:33:30;28.00;99.90
5429;DHT22;2737;52.386;9.980;2022-08-25T16:36:04;28.00;99.90
5429;DHT22;2737;52.386;9.980;2022-08-25T16:38:34;28.00;99.90
5429;DHT22;2737;52.386;9.980;2022-08-25T16:41:04;27.90;99.90
5429;DHT22;2737;52.386;9.980;2022-08-25T16:43:31;28.00;99.90